Аэропорт: Брянск. Брянск

ICAO: UUBP

METAR:
2018/07/16 15:00
UUBP 161500Z 06003MPS 9999 TS BKN025CB 25/20 Q1004 R34/CLRD70 TEMPO VRB15MPS 3000 -TSRA SQ BKN015CB RMK QFE736/0981
METAR:
2010/09/15 10:45
TAF TAF UUBP 151045Z 1512/1524 18005G10MPS 9999 SCT030